sensor_id;sensor_type;location;lat;lon;timestamp;pressure;altitude;pressure_sealevel;temperature;humidity
43824;BME280;29470;53.550;9.926;2022-09-23T00:04:40;101606.59;;;10.65;86.20
43824;BME280;29470;53.550;9.926;2022-09-23T00:09:44;101595.56;;;10.67;86.19
43824;BME280;29470;53.550;9.926;2022-09-23T00:15:06;101588.38;;;10.42;87.27
43824;BME280;29470;53.550;9.926;2022-09-23T00:20:10;101589.25;;;10.53;86.72
43824;BME280;29470;53.550;9.926;2022-09-23T00:25:14;101586.81;;;10.55;87.01
43824;BME280;29470;53.550;9.926;2022-09-23T00:30:17;101590.44;;;10.36;86.72
43824;BME280;29470;53.550;9.926;2022-09-23T00:35:20;101582.97;;;10.39;86.55
43824;BME280;29470;53.550;9.926;2022-09-23T00:40:24;101580.88;;;10.45;86.46
43824;BME280;29470;53.550;9.926;2022-09-23T00:45:27;101576.06;;;10.29;87.10
43824;BME280;29470;53.550;9.926;2022-09-23T00:50:35;101573.88;;;10.24;87.68
43824;BME280;29470;53.550;9.926;2022-09-23T00:55:42;101570.53;;;10.14;87.41
43824;BME280;29470;53.550;9.926;2022-09-23T01:00:48;101573.47;;;10.09;87.00
43824;BME280;29470;53.550;9.926;2022-09-23T01:05:51;101565.19;;;10.13;86.47
43824;BME280;29470;53.550;9.926;2022-09-23T01:11:01;101556.56;;;10.12;85.75
43824;BME280;29470;53.550;9.926;2022-09-23T01:16:13;101550.72;;;10.05;86.61
43824;BME280;29470;53.550;9.926;2022-09-23T01:21:32;101556.81;;;10.05;86.84
43824;BME280;29470;53.550;9.926;2022-09-23T01:26:50;101541.16;;;10.24;85.14
43824;BME280;29470;53.550;9.926;2022-09-23T01:31:59;101531.34;;;10.41;84.85
43824;BME280;29470;53.550;9.926;2022-09-23T01:37:08;101526.94;;;10.50;83.55
43824;BME280;29470;53.550;9.926;2022-09-23T01:42:13;101519.81;;;10.37;84.06
43824;BME280;29470;53.550;9.926;2022-09-23T01:47:23;101515.56;;;10.27;83.66
43824;BME280;29470;53.550;9.926;2022-09-23T01:52:29;101517.13;;;10.25;83.76
43824;BME280;29470;53.550;9.926;2022-09-23T01:57:36;101508.31;;;10.23;83.54
43824;BME280;29470;53.550;9.926;2022-09-23T02:02:46;101516.25;;;10.14;84.14
43824;BME280;29470;53.550;9.926;2022-09-23T02:07:54;101506.94;;;9.96;84.93
43824;BME280;29470;53.550;9.926;2022-09-23T02:13:02;101515.22;;;9.81;84.81
43824;BME280;29470;53.550;9.926;2022-09-23T02:18:12;101499.19;;;9.85;85.18
43824;BME280;29470;53.550;9.926;2022-09-23T02:23:20;101499.56;;;9.80;85.60
43824;BME280;29470;53.550;9.926;2022-09-23T02:28:30;101485.09;;;9.82;85.80
43824;BME280;29470;53.550;9.926;2022-09-23T02:33:40;101483.53;;;9.84;86.12
43824;BME280;29470;53.550;9.926;2022-09-23T02:38:48;101482.00;;;9.86;85.46
43824;BME280;29470;53.550;9.926;2022-09-23T02:43:57;101465.06;;;10.00;84.50
43824;BME280;29470;53.550;9.926;2022-09-23T02:49:09;101473.97;;;10.03;83.82
43824;BME280;29470;53.550;9.926;2022-09-23T02:54:16;101475.66;;;9.93;84.16
43824;BME280;29470;53.550;9.926;2022-09-23T02:59:21;101462.50;;;10.00;84.32
43824;BME280;29470;53.550;9.926;2022-09-23T03:04:33;101462.88;;;9.94;84.38
43824;BME280;29470;53.550;9.926;2022-09-23T03:09:41;101463.53;;;9.92;84.41
43824;BME280;29470;53.550;9.926;2022-09-23T03:14:49;101453.97;;;9.80;84.67
43824;BME280;29470;53.550;9.926;2022-09-23T03:19:59;101455.78;;;9.92;83.83
43824;BME280;29470;53.550;9.926;2022-09-23T03:25:07;101444.00;;;9.85;83.99
43824;BME280;29470;53.550;9.926;2022-09-23T03:30:12;101442.09;;;9.82;84.37
43824;BME280;29470;53.550;9.926;2022-09-23T03:35:16;101434.31;;;9.93;83.72
43824;BME280;29470;53.550;9.926;2022-09-23T03:40:22;101429.16;;;9.93;83.76
43824;BME280;29470;53.550;9.926;2022-09-23T03:45:30;101427.97;;;9.89;83.51
43824;BME280;29470;53.550;9.926;2022-09-23T03:50:36;101425.28;;;9.77;83.59
43824;BME280;29470;53.550;9.926;2022-09-23T03:55:39;101422.44;;;9.84;83.91
43824;BME280;29470;53.550;9.926;2022-09-23T04:00:42;101416.78;;;9.78;84.54
43824;BME280;29470;53.550;9.926;2022-09-23T04:05:48;101412.66;;;9.70;85.03
43824;BME280;29470;53.550;9.926;2022-09-23T04:10:52;101413.16;;;9.66;85.37
43824;BME280;29470;53.550;9.926;2022-09-23T04:16:00;101402.06;;;9.46;86.02
43824;BME280;29470;53.550;9.926;2022-09-23T04:21:05;101401.44;;;9.49;85.91
43824;BME280;29470;53.550;9.926;2022-09-23T04:26:08;101404.38;;;9.53;85.74
43824;BME280;29470;53.550;9.926;2022-09-23T04:31:11;101393.53;;;9.57;85.76
43824;BME280;29470;53.550;9.926;2022-09-23T04:36:15;101376.63;;;9.51;85.95
43824;BME280;29470;53.550;9.926;2022-09-23T04:41:18;101381.66;;;9.60;85.77
43824;BME280;29470;53.550;9.926;2022-09-23T04:46:21;101380.09;;;9.62;85.19
43824;BME280;29470;53.550;9.926;2022-09-23T04:51:26;101378.69;;;9.65;84.43
43824;BME280;29470;53.550;9.926;2022-09-23T04:56:30;101378.66;;;9.76;84.98
43824;BME280;29470;53.550;9.926;2022-09-23T05:01:34;101380.59;;;9.78;84.65
43824;BME280;29470;53.550;9.926;2022-09-23T05:06:40;101372.59;;;9.85;84.39
43824;BME280;29470;53.550;9.926;2022-09-23T05:11:45;101379.13;;;9.92;83.65
43824;BME280;29470;53.550;9.926;2022-09-23T05:16:48;101369.22;;;9.86;83.61
43824;BME280;29470;53.550;9.926;2022-09-23T05:21:52;101377.59;;;9.94;83.55
43824;BME280;29470;53.550;9.926;2022-09-23T05:26:55;101368.69;;;10.01;83.72
43824;BME280;29470;53.550;9.926;2022-09-23T05:31:59;101373.03;;;10.12;83.52
43824;BME280;29470;53.550;9.926;2022-09-23T05:37:03;101364.09;;;10.19;83.04
43824;BME280;29470;53.550;9.926;2022-09-23T05:42:08;101366.38;;;10.26;83.12
43824;BME280;29470;53.550;9.926;2022-09-23T05:47:12;101372.53;;;10.39;82.73
43824;BME280;29470;53.550;9.926;2022-09-23T05:52:17;101371.75;;;10.50;81.78
43824;BME280;29470;53.550;9.926;2022-09-23T05:57:20;101367.84;;;10.55;81.84
43824;BME280;29470;53.550;9.926;2022-09-23T06:02:23;101358.88;;;10.62;81.39
43824;BME280;29470;53.550;9.926;2022-09-23T06:07:27;101362.38;;;10.63;81.28
43824;BME280;29470;53.550;9.926;2022-09-23T06:12:32;101357.38;;;10.76;80.97
43824;BME280;29470;53.550;9.926;2022-09-23T06:17:36;101362.44;;;10.74;80.70
43824;BME280;29470;53.550;9.926;2022-09-23T06:22:40;101351.97;;;10.73;81.40
43824;BME280;29470;53.550;9.926;2022-09-23T06:27:43;101359.97;;;10.76;81.96
43824;BME280;29470;53.550;9.926;2022-09-23T06:32:47;101355.22;;;10.93;80.95
43824;BME280;29470;53.550;9.926;2022-09-23T06:37:54;101351.41;;;10.99;81.31
43824;BME280;29470;53.550;9.926;2022-09-23T06:42:58;101363.47;;;10.99;80.03
43824;BME280;29470;53.550;9.926;2022-09-23T06:48:01;101363.72;;;11.14;79.88
43824;BME280;29470;53.550;9.926;2022-09-23T06:53:06;101363.63;;;11.58;78.02
43824;BME280;29470;53.550;9.926;2022-09-23T06:58:09;101356.34;;;12.12;75.38
43824;BME280;29470;53.550;9.926;2022-09-23T07:03:13;101361.47;;;13.36;71.79
43824;BME280;29470;53.550;9.926;2022-09-23T07:08:17;101359.91;;;14.59;65.72
43824;BME280;29470;53.550;9.926;2022-09-23T07:13:20;101354.88;;;15.78;61.35
43824;BME280;29470;53.550;9.926;2022-09-23T07:18:25;101349.91;;;16.60;57.46
43824;BME280;29470;53.550;9.926;2022-09-23T07:23:29;101348.88;;;17.06;55.56
43824;BME280;29470;53.550;9.926;2022-09-23T07:28:34;101353.69;;;18.21;52.51
43824;BME280;29470;53.550;9.926;2022-09-23T07:33:39;101348.06;;;17.07;54.13
43824;BME280;29470;53.550;9.926;2022-09-23T07:38:46;101360.97;;;16.40;58.39
43824;BME280;29470;53.550;9.926;2022-09-23T07:43:48;101355.00;;;15.36;61.81
43824;BME280;29470;53.550;9.926;2022-09-23T07:48:53;101354.09;;;15.05;63.57
43824;BME280;29470;53.550;9.926;2022-09-23T07:53:57;101351.63;;;14.51;64.83
43824;BME280;29470;53.550;9.926;2022-09-23T07:59:00;101358.56;;;14.37;65.35
43824;BME280;29470;53.550;9.926;2022-09-23T08:04:07;101359.00;;;14.72;65.04
43824;BME280;29470;53.550;9.926;2022-09-23T08:09:12;101354.72;;;14.72;64.37
43824;BME280;29470;53.550;9.926;2022-09-23T08:14:16;101355.78;;;15.05;63.50
43824;BME280;29470;53.550;9.926;2022-09-23T08:19:19;101361.28;;;15.09;63.11
43824;BME280;29470;53.550;9.926;2022-09-23T08:24:23;101357.53;;;14.91;63.46
43824;BME280;29470;53.550;9.926;2022-09-23T08:29:27;101354.44;;;14.96;64.29
43824;BME280;29470;53.550;9.926;2022-09-23T08:34:30;101347.66;;;14.85;64.57
43824;BME280;29470;53.550;9.926;2022-09-23T08:39:34;101341.34;;;14.81;64.56
43824;BME280;29470;53.550;9.926;2022-09-23T08:44:44;101342.78;;;14.63;65.19
43824;BME280;29470;53.550;9.926;2022-09-23T08:49:58;101332.31;;;14.90;64.66
43824;BME280;29470;53.550;9.926;2022-09-23T08:55:08;101335.03;;;15.06;64.56
43824;BME280;29470;53.550;9.926;2022-09-23T09:00:18;101335.53;;;15.29;63.75
43824;BME280;29470;53.550;9.926;2022-09-23T09:05:24;101334.19;;;15.51;64.12
43824;BME280;29470;53.550;9.926;2022-09-23T09:10:32;101325.72;;;15.70;63.13
43824;BME280;29470;53.550;9.926;2022-09-23T09:15:41;101321.13;;;15.81;62.88
43824;BME280;29470;53.550;9.926;2022-09-23T09:20:54;101325.59;;;15.98;63.40
43824;BME280;29470;53.550;9.926;2022-09-23T09:26:01;101317.88;;;16.00;62.84
43824;BME280;29470;53.550;9.926;2022-09-23T09:31:19;101304.56;;;16.27;62.08
43824;BME280;29470;53.550;9.926;2022-09-23T09:36:32;101303.63;;;16.41;61.51
43824;BME280;29470;53.550;9.926;2022-09-23T09:41:40;101305.97;;;16.53;62.16
43824;BME280;29470;53.550;9.926;2022-09-23T09:46:50;101291.47;;;16.75;61.06
43824;BME280;29470;53.550;9.926;2022-09-23T09:57:25;101283.28;;;17.18;59.85
43824;BME280;29470;53.550;9.926;2022-09-23T10:02:38;101273.59;;;17.70;58.34
43824;BME280;29470;53.550;9.926;2022-09-23T10:07:41;101275.78;;;17.79;57.59
43824;BME280;29470;53.550;9.926;2022-09-23T10:12:46;101269.69;;;17.98;56.36
43824;BME280;29470;53.550;9.926;2022-09-23T10:17:49;101262.00;;;18.19;54.67
43824;BME280;29470;53.550;9.926;2022-09-23T10:22:52;101253.03;;;18.14;54.89
43824;BME280;29470;53.550;9.926;2022-09-23T10:33:25;101251.34;;;18.34;53.17
43824;BME280;29470;53.550;9.926;2022-09-23T10:38:28;101254.66;;;18.69;50.63
43824;BME280;29470;53.550;9.926;2022-09-23T10:43:39;101257.59;;;18.97;49.74
43824;BME280;29470;53.550;9.926;2022-09-23T10:49:15;101250.81;;;19.02;48.79
43824;BME280;29470;53.550;9.926;2022-09-23T10:54:28;101242.41;;;19.31;47.87
43824;BME280;29470;53.550;9.926;2022-09-23T10:59:50;101246.25;;;19.62;48.15
43824;BME280;29470;53.550;9.926;2022-09-23T11:05:24;101237.22;;;19.76;46.60
43824;BME280;29470;53.550;9.926;2022-09-23T11:10:49;101221.91;;;19.87;46.16
43824;BME280;29470;53.550;9.926;2022-09-23T11:16:05;101210.00;;;20.18;43.25
43824;BME280;29470;53.550;9.926;2022-09-23T11:21:24;101215.50;;;20.26;42.16
43824;BME280;29470;53.550;9.926;2022-09-23T11:26:37;101207.25;;;20.39;41.11
43824;BME280;29470;53.550;9.926;2022-09-23T11:31:52;101201.50;;;20.25;41.08
43824;BME280;29470;53.550;9.926;2022-09-23T11:37:03;101201.91;;;20.38;41.96
43824;BME280;29470;53.550;9.926;2022-09-23T11:42:13;101198.22;;;20.08;43.04
43824;BME280;29470;53.550;9.926;2022-09-23T11:47:22;101185.00;;;20.54;42.13
43824;BME280;29470;53.550;9.926;2022-09-23T11:52:30;101175.47;;;20.31;41.80
43824;BME280;29470;53.550;9.926;2022-09-23T11:57:44;101171.38;;;20.15;40.87
43824;BME280;29470;53.550;9.926;2022-09-23T12:03:01;101169.69;;;19.93;42.54
43824;BME280;29470;53.550;9.926;2022-09-23T12:08:16;101178.59;;;20.21;41.07
43824;BME280;29470;53.550;9.926;2022-09-23T12:13:27;101169.91;;;20.24;41.44
43824;BME280;29470;53.550;9.926;2022-09-23T12:18:42;101172.41;;;19.73;41.96
43824;BME280;29470;53.550;9.926;2022-09-23T12:23:53;101158.25;;;19.93;41.97
43824;BME280;29470;53.550;9.926;2022-09-23T12:29:05;101156.41;;;20.39;41.17
43824;BME280;29470;53.550;9.926;2022-09-23T12:34:21;101156.50;;;20.16;40.60
43824;BME280;29470;53.550;9.926;2022-09-23T12:39:28;101148.97;;;20.51;40.24
43824;BME280;29470;53.550;9.926;2022-09-23T12:44:37;101150.94;;;20.57;41.50
43824;BME280;29470;53.550;9.926;2022-09-23T12:49:42;101145.78;;;20.60;41.17
43824;BME280;29470;53.550;9.926;2022-09-23T12:54:46;101142.41;;;20.38;41.87
43824;BME280;29470;53.550;9.926;2022-09-23T12:59:56;101138.75;;;20.35;40.30
43824;BME280;29470;53.550;9.926;2022-09-23T13:05:12;101129.69;;;20.25;41.27
43824;BME280;29470;53.550;9.926;2022-09-23T13:10:41;101120.38;;;20.35;41.19
43824;BME280;29470;53.550;9.926;2022-09-23T13:15:45;101117.03;;;20.65;40.19
43824;BME280;29470;53.550;9.926;2022-09-23T13:20:51;101113.56;;;20.40;39.85
43824;BME280;29470;53.550;9.926;2022-09-23T13:25:56;101116.25;;;20.41;40.76
43824;BME280;29470;53.550;9.926;2022-09-23T13:31:03;101104.78;;;20.39;40.88
43824;BME280;29470;53.550;9.926;2022-09-23T13:36:12;101105.31;;;20.29;40.88
43824;BME280;29470;53.550;9.926;2022-09-23T13:41:17;101097.56;;;20.34;41.66
43824;BME280;29470;53.550;9.926;2022-09-23T13:46:22;101097.38;;;20.53;41.25
43824;BME280;29470;53.550;9.926;2022-09-23T13:51:32;101099.22;;;20.30;40.61
43824;BME280;29470;53.550;9.926;2022-09-23T13:56:35;101083.75;;;20.13;41.54
43824;BME280;29470;53.550;9.926;2022-09-23T14:01:38;101085.00;;;19.99;41.42
43824;BME280;29470;53.550;9.926;2022-09-23T14:06:42;101082.94;;;19.67;41.89
43824;BME280;29470;53.550;9.926;2022-09-23T14:11:45;101075.25;;;20.21;40.97
43824;BME280;29470;53.550;9.926;2022-09-23T14:16:49;101071.88;;;19.99;41.00
43824;BME280;29470;53.550;9.926;2022-09-23T14:21:55;101072.91;;;19.80;40.88
43824;BME280;29470;53.550;9.926;2022-09-23T14:27:03;101060.50;;;19.76;40.81
43824;BME280;29470;53.550;9.926;2022-09-23T14:32:13;101072.00;;;19.55;41.55
43824;BME280;29470;53.550;9.926;2022-09-23T14:37:25;101064.56;;;19.43;41.72
43824;BME280;29470;53.550;9.926;2022-09-23T14:42:49;101061.00;;;19.41;42.04
43824;BME280;29470;53.550;9.926;2022-09-23T14:47:57;101053.97;;;19.40;41.61
43824;BME280;29470;53.550;9.926;2022-09-23T14:53:02;101049.22;;;19.31;42.96
43824;BME280;29470;53.550;9.926;2022-09-23T14:58:14;101052.16;;;19.39;42.63
43824;BME280;29470;53.550;9.926;2022-09-23T15:03:18;101045.97;;;19.37;43.38
43824;BME280;29470;53.550;9.926;2022-09-23T15:08:25;101046.50;;;19.28;43.37
43824;BME280;29470;53.550;9.926;2022-09-23T15:13:31;101042.75;;;18.98;44.45
43824;BME280;29470;53.550;9.926;2022-09-23T15:18:36;101038.44;;;18.79;45.25
43824;BME280;29470;53.550;9.926;2022-09-23T15:23:45;101036.16;;;18.87;44.43
43824;BME280;29470;53.550;9.926;2022-09-23T15:28:50;101031.00;;;18.67;45.04
43824;BME280;29470;53.550;9.926;2022-09-23T15:33:54;101031.25;;;18.74;45.22
43824;BME280;29470;53.550;9.926;2022-09-23T15:39:03;101035.91;;;18.60;45.70
43824;BME280;29470;53.550;9.926;2022-09-23T15:44:10;101036.50;;;18.31;46.82
43824;BME280;29470;53.550;9.926;2022-09-23T15:49:18;101032.72;;;18.46;46.98
43824;BME280;29470;53.550;9.926;2022-09-23T15:54:25;101034.25;;;18.40;47.19
43824;BME280;29470;53.550;9.926;2022-09-23T15:59:28;101037.78;;;18.41;47.81
43824;BME280;29470;53.550;9.926;2022-09-23T16:04:32;101042.28;;;18.24;48.81
43824;BME280;29470;53.550;9.926;2022-09-23T16:09:37;101028.75;;;17.93;49.67
43824;BME280;29470;53.550;9.926;2022-09-23T16:14:41;101023.81;;;18.00;48.96
43824;BME280;29470;53.550;9.926;2022-09-23T16:19:43;101022.88;;;17.99;48.70
43824;BME280;29470;53.550;9.926;2022-09-23T16:24:48;101024.69;;;17.80;50.49
43824;BME280;29470;53.550;9.926;2022-09-23T16:29:50;101017.00;;;17.64;51.49
43824;BME280;29470;53.550;9.926;2022-09-23T16:34:54;101017.25;;;17.70;51.18
43824;BME280;29470;53.550;9.926;2022-09-23T16:40:01;101014.03;;;17.56;52.45
43824;BME280;29470;53.550;9.926;2022-09-23T16:45:05;101003.66;;;17.38;53.60
43824;BME280;29470;53.550;9.926;2022-09-23T16:50:08;101008.91;;;17.20;53.58
43824;BME280;29470;53.550;9.926;2022-09-23T16:55:13;101012.53;;;17.04;54.70
43824;BME280;29470;53.550;9.926;2022-09-23T17:00:18;101005.50;;;17.03;54.15
43824;BME280;29470;53.550;9.926;2022-09-23T17:05:39;101018.41;;;16.82;55.58
43824;BME280;29470;53.550;9.926;2022-09-23T17:10:55;101018.09;;;16.93;55.01
43824;BME280;29470;53.550;9.926;2022-09-23T17:15:59;101016.50;;;16.77;55.89
43824;BME280;29470;53.550;9.926;2022-09-23T17:21:05;101020.59;;;16.72;56.04
43824;BME280;29470;53.550;9.926;2022-09-23T17:26:10;101018.84;;;16.73;56.44
43824;BME280;29470;53.550;9.926;2022-09-23T17:31:14;101012.50;;;16.68;56.29
43824;BME280;29470;53.550;9.926;2022-09-23T17:36:17;101008.03;;;16.47;57.93
43824;BME280;29470;53.550;9.926;2022-09-23T17:41:22;101009.75;;;16.46;58.21
43824;BME280;29470;53.550;9.926;2022-09-23T17:46:28;101002.28;;;16.36;58.38
43824;BME280;29470;53.550;9.926;2022-09-23T17:51:31;101000.81;;;16.41;58.07
43824;BME280;29470;53.550;9.926;2022-09-23T17:56:40;101004.00;;;16.35;59.23
43824;BME280;29470;53.550;9.926;2022-09-23T18:01:43;100998.72;;;16.34;59.03
43824;BME280;29470;53.550;9.926;2022-09-23T18:06:46;101007.88;;;16.26;59.35
43824;BME280;29470;53.550;9.926;2022-09-23T18:11:51;101013.25;;;16.29;60.01
43824;BME280;29470;53.550;9.926;2022-09-23T18:16:54;101010.84;;;16.33;59.77
43824;BME280;29470;53.550;9.926;2022-09-23T18:21:58;101006.59;;;16.35;60.00
43824;BME280;29470;53.550;9.926;2022-09-23T18:27:04;101013.84;;;16.41;59.38
43824;BME280;29470;53.550;9.926;2022-09-23T18:32:07;101021.13;;;16.30;60.33
43824;BME280;29470;53.550;9.926;2022-09-23T18:37:14;101020.59;;;16.19;60.85
43824;BME280;29470;53.550;9.926;2022-09-23T18:42:19;101011.59;;;16.31;61.18
43824;BME280;29470;53.550;9.926;2022-09-23T18:47:22;101011.16;;;16.05;62.01
43824;BME280;29470;53.550;9.926;2022-09-23T18:52:42;101016.63;;;16.10;62.92
43824;BME280;29470;53.550;9.926;2022-09-23T18:57:46;101011.28;;;15.90;63.78
43824;BME280;29470;53.550;9.926;2022-09-23T19:02:50;101018.28;;;15.91;64.38
43824;BME280;29470;53.550;9.926;2022-09-23T19:07:53;101011.28;;;15.90;64.91
43824;BME280;29470;53.550;9.926;2022-09-23T19:12:57;101010.63;;;15.78;66.13
43824;BME280;29470;53.550;9.926;2022-09-23T19:18:01;101012.25;;;15.75;66.43
43824;BME280;29470;53.550;9.926;2022-09-23T19:23:04;101005.97;;;15.72;67.23
43824;BME280;29470;53.550;9.926;2022-09-23T19:28:08;101006.78;;;15.71;67.30
43824;BME280;29470;53.550;9.926;2022-09-23T19:33:11;101012.91;;;15.71;67.84
43824;BME280;29470;53.550;9.926;2022-09-23T19:38:15;101000.03;;;15.74;67.18
43824;BME280;29470;53.550;9.926;2022-09-23T19:43:19;101005.97;;;15.72;67.36
43824;BME280;29470;53.550;9.926;2022-09-23T19:48:22;101000.53;;;15.51;69.15
43824;BME280;29470;53.550;9.926;2022-09-23T19:53:25;100997.31;;;15.40;69.44
43824;BME280;29470;53.550;9.926;2022-09-23T19:58:30;100989.97;;;15.32;69.75
43824;BME280;29470;53.550;9.926;2022-09-23T20:03:33;100990.91;;;15.33;70.22
43824;BME280;29470;53.550;9.926;2022-09-23T20:08:36;100991.63;;;15.30;70.49
43824;BME280;29470;53.550;9.926;2022-09-23T20:13:44;100983.31;;;15.38;70.99
43824;BME280;29470;53.550;9.926;2022-09-23T20:18:50;100976.56;;;15.41;70.84
43824;BME280;29470;53.550;9.926;2022-09-23T20:23:54;100974.50;;;15.36;71.07
43824;BME280;29470;53.550;9.926;2022-09-23T20:28:58;100969.25;;;15.34;70.94
43824;BME280;29470;53.550;9.926;2022-09-23T20:34:02;100969.31;;;15.36;70.13
43824;BME280;29470;53.550;9.926;2022-09-23T20:39:06;100965.00;;;15.36;69.92
43824;BME280;29470;53.550;9.926;2022-09-23T20:44:11;100958.72;;;15.49;69.03
43824;BME280;29470;53.550;9.926;2022-09-23T20:49:15;100955.38;;;15.52;68.63
43824;BME280;29470;53.550;9.926;2022-09-23T20:54:18;100958.50;;;15.44;69.12
43824;BME280;29470;53.550;9.926;2022-09-23T20:59:23;100956.53;;;15.24;70.31
43824;BME280;29470;53.550;9.926;2022-09-23T21:04:28;100955.53;;;15.05;71.42
43824;BME280;29470;53.550;9.926;2022-09-23T21:09:31;100943.22;;;15.02;71.56
43824;BME280;29470;53.550;9.926;2022-09-23T21:14:36;100948.13;;;15.13;71.69
43824;BME280;29470;53.550;9.926;2022-09-23T21:19:39;100946.16;;;15.09;71.75
43824;BME280;29470;53.550;9.926;2022-09-23T21:24:42;100938.91;;;15.03;72.29
43824;BME280;29470;53.550;9.926;2022-09-23T21:30:08;100933.47;;;14.98;72.86
43824;BME280;29470;53.550;9.926;2022-09-23T21:35:11;100944.59;;;14.96;73.38
43824;BME280;29470;53.550;9.926;2022-09-23T21:40:14;100939.63;;;14.84;73.93
43824;BME280;29470;53.550;9.926;2022-09-23T21:45:36;100936.88;;;14.81;75.06
43824;BME280;29470;53.550;9.926;2022-09-23T21:50:39;100935.44;;;14.71;75.54
43824;BME280;29470;53.550;9.926;2022-09-23T21:55:42;100935.06;;;14.65;75.94
43824;BME280;29470;53.550;9.926;2022-09-23T22:00:50;100941.88;;;14.63;76.42
43824;BME280;29470;53.550;9.926;2022-09-23T22:06:01;100943.81;;;14.50;77.13
43824;BME280;29470;53.550;9.926;2022-09-23T22:11:06;100932.81;;;14.39;78.32
43824;BME280;29470;53.550;9.926;2022-09-23T22:16:10;100936.22;;;14.38;78.66
43824;BME280;29470;53.550;9.926;2022-09-23T22:21:17;100941.50;;;14.40;78.84
43824;BME280;29470;53.550;9.926;2022-09-23T22:26:21;100944.81;;;14.37;79.26
43824;BME280;29470;53.550;9.926;2022-09-23T22:31:25;100930.56;;;14.31;80.00
43824;BME280;29470;53.550;9.926;2022-09-23T22:36:46;100931.28;;;14.28;80.81
43824;BME280;29470;53.550;9.926;2022-09-23T22:41:49;100933.38;;;14.19;81.18
43824;BME280;29470;53.550;9.926;2022-09-23T22:46:53;100935.69;;;14.14;82.00
43824;BME280;29470;53.550;9.926;2022-09-23T22:51:56;100936.84;;;14.19;82.04
43824;BME280;29470;53.550;9.926;2022-09-23T22:57:00;100919.38;;;14.17;82.39
43824;BME280;29470;53.550;9.926;2022-09-23T23:02:06;100930.47;;;14.14;82.87
43824;BME280;29470;53.550;9.926;2022-09-23T23:07:09;100921.00;;;14.14;83.50
43824;BME280;29470;53.550;9.926;2022-09-23T23:12:12;100928.53;;;14.10;83.74
43824;BME280;29470;53.550;9.926;2022-09-23T23:17:16;100916.03;;;14.19;84.17
43824;BME280;29470;53.550;9.926;2022-09-23T23:22:19;100917.13;;;14.23;83.94
43824;BME280;29470;53.550;9.926;2022-09-23T23:27:22;100932.97;;;14.27;84.66
43824;BME280;29470;53.550;9.926;2022-09-23T23:32:26;100923.56;;;14.29;85.18
43824;BME280;29470;53.550;9.926;2022-09-23T23:37:29;100911.81;;;14.21;85.21
43824;BME280;29470;53.550;9.926;2022-09-23T23:42:31;100917.03;;;14.06;86.34
43824;BME280;29470;53.550;9.926;2022-09-23T23:47:36;100913.91;;;13.97;87.96
43824;BME280;29470;53.550;9.926;2022-09-23T23:52:40;100917.94;;;13.92;88.67
43824;BME280;29470;53.550;9.926;2022-09-23T23:57:43;100917.94;;;13.92;89.08
